North Stonington, Connecticut
Current Conditions -  °F | °C
As of 8:53 AM on Saturday 25 Oct 2014 (Local Time) from KWST Reporting Station
Clear Clear  
Wind Chill: 47°   Ceiling: Unl
Heat Index: 49°   Visibility: 10mi
Dew Point: 43°   Wind: 6mph
Humidity: 80%   Direction: 280°W
Pressure: 29.81"   Gusts: NA
Location:  41.44°N, 71.88°W
Report Text: KWST 251253Z AUTO 28005KT 10SM CLR 09/06 A2981 RMK AO2 SLP095 T00940061
Loading
Personal Weather Stations






























Interactive Weather Map New forecast layout! Learn more

10-Day Weather Forecast

Advertisements
Track Severe Weather on mobile